Time;durP1;ratioP1;P1;durP2;ratioP2;P2;SDS_P1;SDS_P2;PMS_P1;PMS_P2;Temp;Humidity;BMP_temperature;BMP_pressure;BME280_temperature;BME280_humidity;BME280_pressure;Samples;Min_cycle;Max_cycle;Signal;HPM_P1;HPM_P2
2023/06/27 00:01:39;;;;;;;17.92;2.83;;;17.40;99.90;;;;;;5014706;28;20312;-75
2023/06/27 00:04:07;;;;;;;16.60;2.83;;;17.30;99.90;;;;;;5013544;28;20178;-75
2023/06/27 00:06:37;;;;;;;20.00;2.60;;;17.30;99.90;;;;;;4996305;28;20223;-74
2023/06/27 00:09:06;;;;;;;17.35;2.80;;;17.70;99.90;;;;;;5020241;28;20229;-73
2023/06/27 00:11:31;;;;;;;13.52;2.58;;;17.30;99.90;;;;;;5034427;28;20166;-73
2023/06/27 00:13:58;;;;;;;15.82;2.70;;;17.30;99.90;;;;;;5023960;28;20185;-77
2023/06/27 00:16:24;;;;;;;20.75;3.10;;;17.30;99.90;;;;;;5014044;28;20713;-77
2023/06/27 00:18:50;;;;;;;15.65;2.72;;;;;;;;;;5011895;28;20204;-77
2023/06/27 00:21:17;;;;;;;13.68;2.60;;;17.30;99.90;;;;;;5015755;28;20365;-79
2023/06/27 00:23:43;;;;;;;20.08;3.10;;;17.40;99.90;;;;;;5014393;28;20174;-78
2023/06/27 00:26:12;;;;;;;10.63;2.83;;;17.30;99.90;;;;;;5014751;28;20241;-79
2023/06/27 00:28:37;;;;;;;17.65;2.90;;;17.30;99.90;;;;;;5014460;28;20174;-80
2023/06/27 00:31:03;;;;;;;15.48;2.20;;;;;;;;;;5014518;28;20186;-80
2023/06/27 00:33:29;;;;;;;17.92;2.35;;;17.10;99.90;;;;;;5014708;28;20171;-81
2023/06/27 00:35:55;;;;;;;14.05;2.58;;;;;;;;;;5014200;28;20693;-77
2023/06/27 00:38:21;;;;;;;16.27;2.85;;;17.20;99.90;;;;;;5014556;28;20258;-72
2023/06/27 00:40:47;;;;;;;16.17;2.97;;;;;;;;;;5014273;28;20206;-71
2023/06/27 00:43:13;;;;;;;15.60;2.75;;;;;;;;;;5014436;28;20182;-72
2023/06/27 00:45:38;;;;;;;16.17;2.88;;;17.20;99.90;;;;;;5014407;28;20700;-73
2023/06/27 00:48:04;;;;;;;21.10;2.97;;;17.50;99.90;;;;;;5014460;28;20182;-73
2023/06/27 00:50:30;;;;;;;15.77;2.50;;;17.20;99.90;;;;;;5014266;28;20188;-72
2023/06/27 00:52:59;;;;;;;14.93;2.65;;;17.30;99.90;;;;;;5014350;28;20181;-72
2023/06/27 00:55:25;;;;;;;13.40;3.08;;;17.30;99.90;;;;;;5009874;28;20175;-72
2023/06/27 00:57:53;;;;;;;12.60;2.72;;;17.30;99.90;;;;;;5023259;28;20752;-73
2023/06/27 01:00:19;;;;;;;19.40;3.00;;;17.30;99.90;;;;;;5014007;28;20656;-73
2023/06/27 01:02:45;;;;;;;18.90;3.30;;;17.30;99.90;;;;;;5014214;28;20181;-73
2023/06/27 01:05:12;;;;;;;20.95;3.33;;;17.30;99.90;;;;;;5015573;28;20652;-72
2023/06/27 01:07:47;;;;;;;9.05;2.08;;;17.30;99.90;;;;;;5021467;28;20218;-69
2023/06/27 01:10:25;;;;;;;19.20;2.97;;;17.20;99.90;;;;;;5014834;28;20226;-72
2023/06/27 01:13:21;;;;;;;19.73;3.03;;;17.20;99.90;;;;;;5014067;28;20261;-72
2023/06/27 01:15:47;;;;;;;16.67;2.83;;;17.20;99.90;;;;;;5013996;28;20185;-72
2023/06/27 01:18:15;;;;;;;20.90;3.20;;;17.20;99.90;;;;;;5013670;28;20257;-72
2023/06/27 01:20:43;;;;;;;18.15;3.50;;;17.20;99.90;;;;;;5013468;28;20658;-72
2023/06/27 01:23:24;;;;;;;19.42;3.38;;;17.10;99.90;;;;;;5013809;28;20175;-72
2023/06/27 01:26:12;;;;;;;17.08;2.88;;;17.00;99.90;;;;;;5013425;28;20937;-72
2023/06/27 01:28:37;;;;;;;13.55;2.58;;;17.10;99.90;;;;;;5013788;28;20190;-73
2023/06/27 01:31:03;;;;;;;17.40;2.80;;;;;;;;;;5013589;28;20171;-72
2023/06/27 01:33:39;;;;;;;20.90;2.67;;;17.10;99.90;;;;;;5013593;28;20174;-73
2023/06/27 01:36:13;;;;;;;20.13;2.53;;;17.20;99.90;;;;;;4995967;28;20174;-72
2023/06/27 01:38:50;;;;;;;18.33;2.75;;;17.10;99.90;;;;;;5013685;28;20185;-71
2023/06/27 01:41:20;;;;;;;15.88;2.85;;;17.20;99.90;;;;;;5013466;28;20166;-71
2023/06/27 01:43:46;;;;;;;17.58;3.58;;;17.00;99.90;;;;;;5013365;28;20178;-71
2023/06/27 01:46:12;;;;;;;11.13;2.80;;;17.10;99.90;;;;;;4995506;28;20202;-71
2023/06/27 01:48:40;;;;;;;16.58;2.70;;;17.20;99.90;;;;;;5013343;28;20199;-73
2023/06/27 01:51:07;;;;;;;16.65;2.80;;;16.90;99.90;;;;;;5013176;28;20652;-80
2023/06/27 01:53:34;;;;;;;16.45;3.20;;;17.10;99.90;;;;;;5013304;28;20187;-72
2023/06/27 01:55:59;;;;;;;15.88;2.53;;;17.10;99.90;;;;;;5013117;28;20310;-71
2023/06/27 01:58:25;;;;;;;16.55;3.15;;;17.20;99.90;;;;;;5012676;28;20205;-71
2023/06/27 02:00:50;;;;;;;16.35;3.05;;;17.20;99.90;;;;;;5012365;28;20190;-71
2023/06/27 02:03:16;;;;;;;14.98;2.60;;;17.10;99.90;;;;;;5012182;28;20704;-71
2023/06/27 02:05:41;;;;;;;17.52;3.05;;;17.10;99.90;;;;;;5012103;28;20656;-71
2023/06/27 02:08:07;;;;;;;9.88;2.13;;;17.00;99.90;;;;;;5012230;28;20170;-72
2023/06/27 02:10:33;;;;;;;14.65;2.75;;;;;;;;;;5012303;28;20699;-71
2023/06/27 02:13:03;;;;;;;19.55;3.10;;;17.00;99.90;;;;;;5012792;28;20175;-70
2023/06/27 02:15:28;;;;;;;23.42;3.30;;;17.00;99.90;;;;;;5012411;28;20272;-70
2023/06/27 02:17:54;;;;;;;24.98;3.17;;;17.00;99.90;;;;;;5011217;28;20217;-71
2023/06/27 02:20:19;;;;;;;15.65;2.92;;;16.80;99.90;;;;;;5018115;28;20178;-71
2023/06/27 02:22:45;;;;;;;17.77;3.13;;;16.90;99.90;;;;;;5021877;28;20257;-72
2023/06/27 02:25:11;;;;;;;14.27;2.70;;;;;;;;;;5019410;28;20170;-72
2023/06/27 02:27:37;;;;;;;16.05;3.40;;;;;;;;;;5013635;28;20210;-71
2023/06/27 02:30:03;;;;;;;14.23;2.70;;;16.90;99.90;;;;;;5032197;28;20178;-72
2023/06/27 02:32:29;;;;;;;13.43;2.38;;;;;;;;;;5026727;28;20230;-71
2023/06/27 02:34:54;;;;;;;19.10;2.85;;;17.10;99.90;;;;;;5012341;28;20183;-72
2023/06/27 02:37:20;;;;;;;16.08;2.88;;;17.00;99.90;;;;;;4994656;28;20213;-72
2023/06/27 02:39:46;;;;;;;11.25;2.60;;;16.90;99.90;;;;;;5012312;28;20208;-71
2023/06/27 02:42:11;;;;;;;22.13;3.20;;;16.80;99.90;;;;;;5011925;28;20174;-71
2023/06/27 02:44:37;;;;;;;17.45;2.78;;;;;;;;;;5012114;28;20178;-71
2023/06/27 02:47:03;;;;;;;15.57;2.85;;;16.80;99.90;;;;;;5012049;28;20242;-71
2023/06/27 02:49:29;;;;;;;12.10;2.35;;;;;;;;;;5012134;28;20194;-72
2023/06/27 02:51:55;;;;;;;15.73;2.72;;;;;;;;;;5011946;28;20680;-72
2023/06/27 02:54:21;;;;;;;28.70;3.30;;;16.80;99.90;;;;;;5011887;28;20167;-71
2023/06/27 02:56:46;;;;;;;15.07;2.67;;;16.70;99.90;;;;;;5011963;28;20265;-70
2023/06/27 02:59:12;;;;;;;15.13;2.65;;;16.70;99.90;;;;;;5011811;28;20276;-71
2023/06/27 03:01:38;;;;;;;17.77;2.65;;;16.80;99.90;;;;;;5011853;28;20553;-71
2023/06/27 03:04:03;;;;;;;14.60;3.00;;;16.80;99.90;;;;;;5011750;28;20727;-69
2023/06/27 03:06:29;;;;;;;12.93;2.38;;;16.70;99.90;;;;;;5011528;28;20205;-70
2023/06/27 03:08:55;;;;;;;11.73;2.63;;;;;;;;;;5011827;28;20226;-74
2023/06/27 03:11:21;;;;;;;16.95;2.97;;;16.90;99.90;;;;;;5011613;28;20656;-77
2023/06/27 03:13:46;;;;;;;13.73;2.47;;;16.40;99.90;;;;;;5011742;28;20353;-75
2023/06/27 03:16:13;;;;;;;20.33;2.80;;;16.80;99.90;;;;;;5012882;28;20186;-75
2023/06/27 03:18:39;;;;;;;16.42;2.83;;;;;;;;;;5007656;28;20173;-75
2023/06/27 03:21:05;;;;;;;12.65;2.25;;;;;;;;;;5010603;28;20253;-71
2023/06/27 03:23:31;;;;;;;15.38;3.60;;;16.60;99.90;;;;;;5022372;28;20184;-73
2023/06/27 03:25:57;;;;;;;16.33;3.20;;;16.70;99.90;;;;;;5010248;28;20218;-71
2023/06/27 03:28:23;;;;;;;11.90;2.92;;;;;;;;;;5017150;28;20179;-73
2023/06/27 03:30:49;;;;;;;15.55;3.03;;;;;;;;;;5007574;28;20188;-72
2023/06/27 03:33:15;;;;;;;15.30;2.88;;;;;;;;;;5026943;28;20636;-72
2023/06/27 03:35:41;;;;;;;22.35;2.92;;;16.70;99.90;;;;;;5021142;28;20397;-72
2023/06/27 03:38:07;;;;;;;14.10;2.95;;;16.60;99.90;;;;;;5023306;28;20264;-73
2023/06/27 03:40:33;;;;;;;21.60;2.60;;;;;;;;;;5015723;28;20707;-73
2023/06/27 03:42:58;;;;;;;12.45;3.03;;;16.40;99.90;;;;;;5025190;28;20587;-73
2023/06/27 03:45:24;;;;;;;17.20;3.10;;;;;;;;;;5031253;28;20228;-73
2023/06/27 03:47:50;;;;;;;14.23;2.70;;;16.60;99.90;;;;;;5034051;28;20219;-69
2023/06/27 03:50:15;;;;;;;25.30;3.42;;;16.50;99.90;;;;;;5014940;28;20253;-71
2023/06/27 03:52:41;;;;;;;12.23;2.67;;;16.50;99.90;;;;;;5018431;28;20190;-72
2023/06/27 03:55:07;;;;;;;10.90;2.70;;;16.50;99.90;;;;;;5026002;28;20628;-72
2023/06/27 03:57:33;;;;;;;12.18;2.92;;;16.60;99.90;;;;;;5020089;28;20182;-70
2023/06/27 03:59:59;;;;;;;12.55;2.78;;;16.60;99.90;;;;;;5020395;28;20170;-69
2023/06/27 04:02:24;;;;;;;9.80;2.28;;;16.60;99.90;;;;;;5019086;28;20265;-71
2023/06/27 04:04:50;;;;;;;13.57;2.97;;;16.60;99.90;;;;;;5011095;28;20535;-72
2023/06/27 04:07:15;;;;;;;21.45;2.65;;;16.60;99.90;;;;;;5011675;28;20217;-71
2023/06/27 04:09:41;;;;;;;19.20;2.47;;;16.60;99.90;;;;;;5022773;28;20291;-71
2023/06/27 04:12:08;;;;;;;17.35;3.30;;;16.70;99.90;;;;;;5029305;28;20722;-70
2023/06/27 04:14:34;;;;;;;15.88;3.10;;;16.60;99.90;;;;;;5030652;28;20177;-71
2023/06/27 04:17:00;;;;;;;15.75;3.15;;;16.60;99.90;;;;;;5005341;28;20182;-68
2023/06/27 04:19:26;;;;;;;12.00;2.30;;;16.60;99.90;;;;;;5014082;28;20185;-70
2023/06/27 04:21:51;;;;;;;14.23;3.15;;;16.60;99.90;;;;;;5010882;28;20257;-69
2023/06/27 04:24:17;;;;;;;15.35;2.72;;;16.60;99.90;;;;;;5010676;28;20182;-69
2023/06/27 04:26:42;;;;;;;17.15;3.47;;;16.60;99.90;;;;;;5010917;28;20238;-71
2023/06/27 04:29:08;;;;;;;14.98;2.63;;;16.70;99.90;;;;;;5010838;28;20170;-71
2023/06/27 04:31:34;;;;;;;13.57;2.58;;;16.60;99.90;;;;;;5011167;28;20536;-70
2023/06/27 04:34:00;;;;;;;14.13;2.97;;;16.80;99.90;;;;;;5011018;28;20643;-71
2023/06/27 04:36:28;;;;;;;15.55;2.70;;;16.70;99.90;;;;;;4993243;28;20190;-71
2023/06/27 04:38:54;;;;;;;20.60;2.75;;;16.70;99.90;;;;;;5012237;28;20250;-71
2023/06/27 04:41:20;;;;;;;13.93;2.97;;;16.60;99.90;;;;;;5014417;28;20253;-70
2023/06/27 04:43:45;;;;;;;12.95;2.78;;;16.70;99.90;;;;;;5014384;28;20698;-70
2023/06/27 04:46:11;;;;;;;15.73;3.42;;;;;;;;;;4996950;28;20220;-71
2023/06/27 04:48:37;;;;;;;16.83;2.70;;;16.70;99.90;;;;;;5014436;28;20258;-71
2023/06/27 04:51:03;;;;;;;18.95;3.35;;;16.70;99.90;;;;;;5014138;28;20254;-70
2023/06/27 04:53:30;;;;;;;14.07;2.70;;;16.70;99.90;;;;;;5014322;28;20182;-70
2023/06/27 04:55:56;;;;;;;19.02;2.95;;;16.80;99.90;;;;;;5014338;28;20171;-69
2023/06/27 04:58:21;;;;;;;10.18;2.42;;;16.80;99.90;;;;;;5014136;28;20189;-68
2023/06/27 05:00:47;;;;;;;19.48;3.65;;;17.00;99.90;;;;;;5014487;28;20186;-80
2023/06/27 05:03:17;;;;;;;12.70;2.60;;;16.60;99.90;;;;;;5014192;28;20641;-80
2023/06/27 05:05:43;;;;;;;19.63;2.40;;;16.60;99.90;;;;;;5014096;28;20171;-80
2023/06/27 05:08:09;;;;;;;15.82;2.78;;;16.70;99.90;;;;;;5014036;28;20257;-71
2023/06/27 05:10:36;;;;;;;19.98;3.28;;;;;;;;;;5013267;28;20226;-71
2023/06/27 05:13:02;;;;;;;12.15;2.50;;;16.50;99.90;;;;;;5013780;28;20189;-70
2023/06/27 05:15:27;;;;;;;13.85;2.63;;;16.60;99.90;;;;;;5014077;28;20183;-72
2023/06/27 05:18:14;;;;;;;10.25;2.55;;;16.60;99.90;;;;;;5013920;28;20594;-72
2023/06/27 05:20:43;;;;;;;19.08;2.92;;;16.60;99.90;;;;;;5014854;28;20185;-73
2023/06/27 05:23:09;;;;;;;10.88;2.15;;;16.60;99.90;;;;;;4994773;28;20258;-71
2023/06/27 05:25:35;;;;;;;12.73;2.33;;;16.70;99.90;;;;;;5024797;28;20183;-72
2023/06/27 05:28:01;;;;;;;12.10;2.97;;;16.60;99.90;;;;;;5013750;28;20228;-72
2023/06/27 05:30:28;;;;;;;15.93;3.35;;;16.50;99.90;;;;;;5013289;28;20509;-71
2023/06/27 05:32:54;;;;;;;11.52;3.15;;;16.70;99.90;;;;;;5013552;28;20265;-72
2023/06/27 05:35:21;;;;;;;12.70;2.70;;;16.60;99.90;;;;;;5013485;28;20174;-72
2023/06/27 05:37:47;;;;;;;9.13;2.58;;;16.60;99.90;;;;;;5013314;28;20206;-71
2023/06/27 05:40:13;;;;;;;13.50;3.00;;;16.60;99.90;;;;;;5013389;28;20199;-73
2023/06/27 05:42:39;;;;;;;15.70;2.95;;;16.50;99.90;;;;;;5013037;28;20170;-73
2023/06/27 05:45:05;;;;;;;12.60;2.55;;;16.70;99.90;;;;;;5013280;28;20182;-73
2023/06/27 05:47:31;;;;;;;8.85;2.38;;;16.70;99.90;;;;;;5013121;28;20305;-73
2023/06/27 05:49:57;;;;;;;12.32;2.65;;;16.80;99.90;;;;;;5012707;28;20333;-71
2023/06/27 05:52:23;;;;;;;12.93;2.75;;;16.70;99.90;;;;;;5012552;28;20182;-71
2023/06/27 05:54:49;;;;;;;15.05;2.72;;;16.80;99.90;;;;;;5013157;28;20680;-72
2023/06/27 05:57:14;;;;;;;15.30;2.50;;;16.80;99.90;;;;;;5012953;28;20217;-71
2023/06/27 05:59:41;;;;;;;12.20;2.47;;;;;;;;;;5013197;28;20178;-70
2023/06/27 06:02:06;;;;;;;10.20;2.45;;;14.80;99.90;;;;;;5013195;28;20349;-72
2023/06/27 06:04:32;;;;;;;12.60;2.40;;;17.00;99.90;;;;;;5012798;28;20566;-72
2023/06/27 06:07:03;;;;;;;12.40;2.63;;;17.00;99.90;;;;;;5012787;28;20289;-72
2023/06/27 06:09:30;;;;;;;13.52;3.53;;;17.10;99.90;;;;;;5012710;28;20218;-73
2023/06/27 06:11:58;;;;;;;10.00;2.25;;;17.10;99.90;;;;;;5012731;28;20174;-73
2023/06/27 06:14:24;;;;;;;14.63;2.72;;;17.10;99.90;;;;;;5012746;28;20171;-72
2023/06/27 06:16:50;;;;;;;9.73;2.47;;;17.20;99.90;;;;;;5012320;28;20697;-73
2023/06/27 06:19:16;;;;;;;16.13;2.55;;;17.10;99.90;;;;;;5012089;28;20579;-72
2023/06/27 06:21:42;;;;;;;12.52;2.30;;;;;;;;;;5011755;28;20178;-70
2023/06/27 06:24:08;;;;;;;9.93;2.33;;;17.10;99.90;;;;;;5011883;28;20173;-70
2023/06/27 06:26:37;;;;;;;14.43;2.47;;;17.00;99.90;;;;;;5012866;28;20677;-69
2023/06/27 06:29:03;;;;;;;13.65;2.30;;;17.00;99.90;;;;;;5023203;28;20205;-70
2023/06/27 06:31:29;;;;;;;15.60;2.60;;;17.30;99.90;;;;;;5011596;28;20167;-69
2023/06/27 06:33:56;;;;;;;11.55;3.00;;;17.20;99.90;;;;;;5015772;28;20174;-69
2023/06/27 06:36:22;;;;;;;10.93;2.20;;;;;;;;;;5012028;28;20179;-68
2023/06/27 06:38:48;;;;;;;11.38;2.22;;;17.20;99.90;;;;;;5011953;28;20341;-68
2023/06/27 06:41:13;;;;;;;6.93;2.33;;;17.20;99.90;;;;;;5011751;28;20170;-68
2023/06/27 06:43:39;;;;;;;7.70;2.42;;;17.20;99.90;;;;;;5012004;28;20178;-68
2023/06/27 06:46:05;;;;;;;10.63;2.30;;;17.00;99.90;;;;;;5011757;28;20261;-69
2023/06/27 06:48:30;;;;;;;12.02;2.28;;;17.30;99.90;;;;;;5012088;28;20201;-68
2023/06/27 06:50:57;;;;;;;10.00;2.30;;;;;;;;;;5011978;28;20178;-80
2023/06/27 06:53:22;;;;;;;11.85;2.72;;;17.10;99.90;;;;;;5011835;28;20645;-76
2023/06/27 06:55:48;;;;;;;10.80;2.33;;;17.40;99.90;;;;;;5012914;28;20257;-74
2023/06/27 06:58:14;;;;;;;14.45;2.28;;;17.50;99.90;;;;;;5024520;28;20215;-75
2023/06/27 07:00:39;;;;;;;12.77;2.38;;;17.50;99.90;;;;;;5011937;28;20170;-73
2023/06/27 07:03:08;;;;;;;15.57;2.75;;;17.60;99.90;;;;;;5011194;28;20170;-80
2023/06/27 07:05:35;;;;;;;12.82;2.60;;;17.80;99.90;;;;;;5012104;28;20244;-76
2023/06/27 07:08:04;;;;;;;9.43;2.20;;;17.80;99.90;;;;;;5020885;28;20193;-70
2023/06/27 07:10:30;;;;;;;8.05;2.05;;;18.00;99.90;;;;;;5029501;28;20218;-71
2023/06/27 07:12:56;;;;;;;9.65;2.67;;;17.80;99.90;;;;;;5025696;28;20664;-74
2023/06/27 07:15:23;;;;;;;17.15;2.75;;;17.90;99.90;;;;;;5016352;28;20218;-73
2023/06/27 07:17:50;;;;;;;10.30;2.10;;;17.90;99.90;;;;;;5011324;28;20198;-73
2023/06/27 07:20:16;;;;;;;13.20;2.33;;;17.90;99.90;;;;;;5011726;28;20167;-74
2023/06/27 07:22:42;;;;;;;8.68;2.22;;;18.00;99.90;;;;;;5014873;28;20620;-74
2023/06/27 07:25:08;;;;;;;14.60;2.30;;;18.00;99.90;;;;;;5018391;28;20189;-73
2023/06/27 07:27:34;;;;;;;11.90;2.80;;;17.90;99.90;;;;;;5014529;28;20692;-71
2023/06/27 07:30:00;;;;;;;10.75;2.42;;;;;;;;;;5011500;28;20177;-76
2023/06/27 07:32:25;;;;;;;17.40;2.75;;;17.90;99.90;;;;;;5019487;28;20537;-74
2023/06/27 07:34:51;;;;;;;9.80;2.45;;;17.90;99.90;;;;;;5023220;28;20181;-74
2023/06/27 07:37:16;;;;;;;13.18;2.50;;;18.00;99.90;;;;;;5011557;28;20569;-74
2023/06/27 07:39:42;;;;;;;13.68;2.55;;;18.00;99.90;;;;;;5018372;28;20182;-74
2023/06/27 07:42:08;;;;;;;11.73;2.63;;;17.90;99.90;;;;;;5031166;28;20249;-75
2023/06/27 07:44:34;;;;;;;15.50;2.67;;;18.00;99.90;;;;;;5031403;28;20181;-76
2023/06/27 07:47:00;;;;;;;7.55;2.20;;;18.00;99.90;;;;;;5030747;28;20209;-68
2023/06/27 07:49:25;;;;;;;13.13;2.20;;;18.00;99.90;;;;;;5030915;28;20181;-69
2023/06/27 07:51:51;;;;;;;12.50;2.40;;;18.00;99.90;;;;;;5012720;28;20196;-78
2023/06/27 07:54:21;;;;;;;10.15;2.45;;;18.00;99.90;;;;;;5007438;28;20265;-79
2023/06/27 07:56:52;;;;;;;18.60;2.90;;;18.10;99.90;;;;;;5019076;28;20301;-79
2023/06/27 07:59:17;;;;;;;8.00;2.10;;;18.10;99.90;;;;;;5021695;28;20181;-76
2023/06/27 08:01:43;;;;;;;15.68;2.90;;;18.00;99.90;;;;;;5011137;28;20249;-76
2023/06/27 08:04:09;;;;;;;14.32;2.67;;;18.10;99.90;;;;;;4992781;28;20171;-73
2023/06/27 08:06:34;;;;;;;14.88;2.50;;;18.10;99.90;;;;;;5010657;28;20213;-74
2023/06/27 08:09:00;;;;;;;15.98;2.42;;;18.10;99.90;;;;;;5010447;28;20210;-76
2023/06/27 08:11:26;;;;;;;13.25;2.22;;;18.10;99.90;;;;;;5002857;28;20187;-74
2023/06/27 08:13:52;;;;;;;10.82;2.53;;;18.10;99.90;;;;;;5011756;28;20173;-78
2023/06/27 08:16:17;;;;;;;11.13;2.55;;;18.20;99.90;;;;;;5014160;28;20309;-76
2023/06/27 08:18:43;;;;;;;15.57;2.75;;;18.30;99.90;;;;;;5012770;28;20650;-76
2023/06/27 08:21:08;;;;;;;13.30;2.42;;;18.30;99.90;;;;;;5014692;28;20182;-78
2023/06/27 08:23:34;;;;;;;13.00;2.30;;;18.30;99.90;;;;;;5014808;28;20167;-79
2023/06/27 08:26:37;;;;;;;14.30;2.67;;;18.20;99.90;;;;;;4811353;23;20234;-80
2023/06/27 08:29:03;;;;;;;11.77;2.10;;;18.20;99.90;;;;;;5053079;23;20209;-78
2023/06/27 08:31:29;;;;;;;9.15;2.40;;;18.40;99.90;;;;;;5043017;28;20182;-68
2023/06/27 08:33:55;;;;;;;12.32;2.30;;;18.50;99.90;;;;;;5041179;28;20169;-67
2023/06/27 08:36:20;;;;;;;10.90;2.03;;;18.70;99.90;;;;;;5036307;28;20170;-68
2023/06/27 08:38:46;;;;;;;9.27;2.33;;;18.60;99.90;;;;;;5044498;28;20185;-68
2023/06/27 08:41:13;;;;;;;29.83;3.70;;;18.70;99.90;;;;;;5053822;28;20177;-66
2023/06/27 08:43:39;;;;;;;150.02;9.57;;;18.90;99.90;;;;;;5053710;28;20165;-68
2023/06/27 08:46:08;;;;;;;86.03;6.65;;;19.00;99.90;;;;;;5053842;28;20209;-70
2023/06/27 08:48:37;;;;;;;31.52;3.25;;;18.90;99.90;;;;;;5053385;28;20262;-69
2023/06/27 08:51:04;;;;;;;82.28;6.22;;;18.90;99.90;;;;;;5053388;28;20668;-67
2023/06/27 08:53:36;;;;;;;15.63;2.50;;;18.80;99.90;;;;;;5053831;28;20177;-69
2023/06/27 08:56:10;;;;;;;9.35;2.33;;;18.60;99.90;;;;;;5053920;28;20192;-74
2023/06/27 08:59:07;;;;;;;12.15;2.50;;;18.70;99.90;;;;;;5053967;28;20252;-77
2023/06/27 09:01:36;;;;;;;9.80;2.10;;;18.80;99.90;;;;;;5037910;28;20192;-73
2023/06/27 09:04:03;;;;;;;10.05;2.47;;;18.60;99.90;;;;;;5053999;28;20240;-64
2023/06/27 09:06:29;;;;;;;9.00;2.15;;;18.70;99.90;;;;;;5053690;28;20216;-66
2023/06/27 09:08:55;;;;;;;9.07;2.20;;;18.60;99.90;;;;;;5053629;28;20170;-66
2023/06/27 09:11:21;;;;;;;13.00;2.25;;;18.70;99.90;;;;;;5052569;28;20165;-67
2023/06/27 09:13:47;;;;;;;10.85;2.40;;;18.70;99.90;;;;;;5052630;28;20631;-67
2023/06/27 09:16:13;;;;;;;11.52;2.40;;;18.80;99.90;;;;;;5052057;28;20196;-67
2023/06/27 09:18:40;;;;;;;14.93;2.72;;;18.70;99.90;;;;;;5041403;28;20178;-67
2023/06/27 09:21:06;;;;;;;15.75;3.00;;;18.60;99.90;;;;;;5053015;28;20191;-67
2023/06/27 09:23:32;;;;;;;9.45;1.98;;;18.70;99.90;;;;;;5053031;28;20209;-67
2023/06/27 09:26:10;;;;;;;11.07;2.33;;;18.60;99.90;;;;;;5051807;28;20173;-68
2023/06/27 09:28:49;;;;;;;15.57;3.78;;;18.60;99.90;;;;;;5044951;28;20224;-67
2023/06/27 09:31:18;;;;;;;16.20;3.58;;;18.60;99.90;;;;;;5052751;28;20184;-66
2023/06/27 09:33:44;;;;;;;14.55;3.55;;;18.60;99.90;;;;;;5051733;28;20727;-68
2023/06/27 09:36:10;;;;;;;13.30;2.95;;;18.50;99.90;;;;;;5052237;28;20173;-68
2023/06/27 09:38:36;;;;;;;11.40;3.33;;;18.50;99.90;;;;;;5052882;28;20173;-67
2023/06/27 09:41:06;;;;;;;14.18;2.80;;;18.50;99.90;;;;;;5052339;28;20704;-67
2023/06/27 09:43:35;;;;;;;11.20;3.05;;;18.40;99.90;;;;;;5052418;28;20718;-66
2023/06/27 09:46:01;;;;;;;21.67;3.47;;;18.60;99.90;;;;;;5051527;28;20204;-67
2023/06/27 09:48:30;;;;;;;26.85;3.63;;;18.60;99.90;;;;;;5051356;28;20666;-67
2023/06/27 09:51:03;;;;;;;10.77;3.03;;;18.80;99.90;;;;;;5052585;28;20165;-67
2023/06/27 09:53:30;;;;;;;9.85;2.90;;;18.90;99.90;;;;;;5051612;28;20181;-67
2023/06/27 09:55:59;;;;;;;14.35;3.60;;;19.00;99.90;;;;;;5051713;28;20184;-67
2023/06/27 09:58:29;;;;;;;13.43;3.80;;;19.10;99.90;;;;;;5051650;28;20223;-67
2023/06/27 10:01:05;;;;;;;14.68;3.88;;;19.00;99.90;;;;;;5051678;28;20168;-67
2023/06/27 10:03:34;;;;;;;8.55;3.25;;;19.10;99.90;;;;;;5051829;28;20199;-66
2023/06/27 10:06:01;;;;;;;9.82;3.03;;;19.10;99.90;;;;;;5052227;28;20631;-67
2023/06/27 10:08:27;;;;;;;10.43;3.13;;;19.20;99.90;;;;;;5055882;28;20655;-71
2023/06/27 10:10:56;;;;;;;16.73;3.28;;;19.20;99.90;;;;;;5054228;28;20264;-70
2023/06/27 10:13:22;;;;;;;11.77;3.10;;;19.20;99.90;;;;;;5052023;28;20173;-71
2023/06/27 10:15:48;;;;;;;14.52;2.67;;;19.10;99.90;;;;;;5052004;28;20689;-67
2023/06/27 10:18:15;;;;;;;11.15;2.53;;;19.20;99.90;;;;;;5051519;28;20215;-69
2023/06/27 10:20:40;;;;;;;17.10;3.50;;;19.00;99.90;;;;;;5051524;28;20173;-68
2023/06/27 10:23:08;;;;;;;12.10;3.15;;;19.20;99.90;;;;;;5050258;28;20181;-69
2023/06/27 10:25:34;;;;;;;13.93;2.92;;;19.20;99.90;;;;;;5049999;28;20172;-68
2023/06/27 10:28:08;;;;;;;14.77;2.97;;;19.10;99.90;;;;;;5041768;28;20236;-68
2023/06/27 10:30:42;;;;;;;13.15;3.13;;;19.10;99.90;;;;;;5028588;28;20193;-67
2023/06/27 10:33:31;;;;;;;16.25;3.25;;;19.20;99.90;;;;;;5044196;28;20258;-68
2023/06/27 10:36:04;;;;;;;13.15;2.70;;;18.50;99.90;;;;;;5027334;28;20196;-67
2023/06/27 10:38:38;;;;;;;6.30;2.20;;;19.40;99.90;;;;;;5050769;28;20517;-67
2023/06/27 10:41:06;;;;;;;19.50;2.70;;;19.30;83.30;;;;;;5048622;28;20178;-67
2023/06/27 10:43:49;;;;;;;13.10;2.42;;;19.40;96.80;;;;;;5050110;28;20173;-68
2023/06/27 10:46:26;;;;;;;17.77;2.42;;;19.50;1.00;;;;;;5050004;28;20209;-68
2023/06/27 10:48:59;;;;;;;15.27;2.65;;;19.40;1.00;;;;;;5051028;28;20177;-68
2023/06/27 10:51:36;;;;;;;12.50;2.28;;;19.40;1.00;;;;;;5050810;28;20174;-68
2023/06/27 10:54:08;;;;;;;8.88;2.90;;;19.20;1.00;;;;;;5019104;28;20683;-68
2023/06/27 10:56:36;;;;;;;14.57;2.47;;;19.00;1.00;;;;;;5051402;28;20235;-68
2023/06/27 10:59:04;;;;;;;8.77;2.50;;;19.10;1.00;;;;;;5051063;28;20665;-68
2023/06/27 11:01:34;;;;;;;8.95;2.63;;;19.00;1.00;;;;;;5050323;28;20219;-69
2023/06/27 11:04:00;;;;;;;7.90;2.75;;;18.90;99.90;;;;;;5050612;28;20166;-68
2023/06/27 11:06:39;;;;;;;10.63;2.92;;;19.00;99.90;;;;;;5050990;28;20240;-66
2023/06/27 11:09:05;;;;;;;19.58;3.95;;;18.90;99.90;;;;;;5021425;28;20193;-67
2023/06/27 11:11:31;;;;;;;14.50;3.75;;;19.00;99.90;;;;;;5047497;28;20173;-67
2023/06/27 11:14:08;;;;;;;11.18;3.03;;;19.10;99.90;;;;;;5037632;28;20247;-68
2023/06/27 11:16:34;;;;;;;12.77;3.15;;;19.30;92.10;;;;;;5051347;28;20188;-68
2023/06/27 11:19:03;;;;;;;9.07;2.83;;;19.60;1.00;;;;;;5050938;28;20664;-67
2023/06/27 11:21:30;;;;;;;9.00;2.60;;;19.80;1.00;;;;;;5049994;28;20185;-67
2023/06/27 11:23:59;;;;;;;12.00;3.53;;;20.00;1.00;;;;;;5050794;28;20193;-66
2023/06/27 11:26:26;;;;;;;13.73;3.78;;;20.10;1.00;;;;;;5048367;28;20299;-68
2023/06/27 11:28:52;;;;;;;11.32;2.65;;;20.10;99.90;;;;;;5044568;28;20225;-67
2023/06/27 11:31:18;;;;;;;8.27;3.55;;;20.20;1.00;;;;;;5051112;28;20227;-66
2023/06/27 11:33:43;;;;;;;8.05;2.65;;;20.10;99.90;;;;;;5050873;28;20205;-67
2023/06/27 11:36:09;;;;;;;8.30;2.65;;;20.00;99.90;;;;;;5051425;28;20697;-67
2023/06/27 11:38:35;;;;;;;13.93;2.60;;;19.80;1.00;;;;;;5050618;28;20694;-67
2023/06/27 11:41:01;;;;;;;15.88;3.15;;;19.60;1.00;;;;;;5048764;28;20242;-68
2023/06/27 11:43:27;;;;;;;8.25;2.92;;;19.70;1.00;;;;;;5050616;28;20181;-68
2023/06/27 11:45:56;;;;;;;11.18;2.55;;;19.30;1.00;;;;;;5050815;28;20165;-68
2023/06/27 11:48:21;;;;;;;10.45;2.60;;;19.10;99.90;;;;;;5050085;28;20192;-68
2023/06/27 11:50:57;;;;;;;13.02;2.97;;;19.10;99.90;;;;;;5050948;28;20180;-68
2023/06/27 11:53:27;;;;;;;8.25;2.75;;;19.10;99.90;;;;;;5050877;28;20177;-68
2023/06/27 11:55:54;;;;;;;7.13;2.72;;;19.00;99.90;;;;;;5050814;28;20174;-68
2023/06/27 11:58:29;;;;;;;11.02;3.00;;;19.00;99.90;;;;;;5050576;28;20161;-68
2023/06/27 12:00:57;;;;;;;7.68;2.53;;;19.00;99.90;;;;;;5050610;28;20251;-67
2023/06/27 12:03:33;;;;;;;7.82;2.72;;;18.90;99.90;;;;;;5050669;28;20184;-67
2023/06/27 12:05:59;;;;;;;10.73;2.95;;;18.70;99.90;;;;;;5050491;28;20169;-68
2023/06/27 12:08:29;;;;;;;15.32;3.05;;;18.70;99.90;;;;;;5030900;28;20184;-68
2023/06/27 12:10:57;;;;;;;13.60;3.53;;;18.80;99.90;;;;;;5030369;28;20181;-68
2023/06/27 12:13:34;;;;;;;13.18;3.10;;;18.90;99.90;;;;;;5030295;28;20228;-68
2023/06/27 12:16:00;;;;;;;12.88;3.20;;;19.00;99.90;;;;;;5049663;28;20203;-67
2023/06/27 12:18:27;;;;;;;14.32;3.38;;;19.00;99.90;;;;;;5050439;28;20700;-67
2023/06/27 12:20:53;;;;;;;16.50;3.15;;;19.10;99.90;;;;;;5050611;28;20178;-67
2023/06/27 12:23:20;;;;;;;11.82;3.22;;;20.90;99.90;;;;;;5050403;28;20273;-66
2023/06/27 12:25:46;;;;;;;10.77;3.05;;;19.10;99.90;;;;;;5050316;28;20169;-68
2023/06/27 12:28:12;;;;;;;8.48;2.92;;;19.20;99.90;;;;;;5050349;28;20236;-66
2023/06/27 12:30:38;;;;;;;12.52;2.85;;;19.40;99.90;;;;;;5050617;28;20176;-68
2023/06/27 12:33:05;;;;;;;11.60;2.90;;;19.60;99.90;;;;;;5050398;28;20173;-68
2023/06/27 12:35:31;;;;;;;13.45;3.50;;;19.80;99.90;;;;;;5049409;28;20169;-67
2023/06/27 12:37:57;;;;;;;14.07;3.20;;;19.80;99.90;;;;;;5048858;28;20173;-67
2023/06/27 12:40:24;;;;;;;16.38;3.55;;;19.80;99.90;;;;;;5049498;28;20518;-67
2023/06/27 12:42:51;;;;;;;8.02;2.97;;;19.90;99.90;;;;;;5050558;28;20177;-68
2023/06/27 12:45:17;;;;;;;13.10;2.97;;;19.80;99.90;;;;;;5049073;28;20183;-67
2023/06/27 12:47:44;;;;;;;9.00;2.60;;;20.10;99.90;;;;;;5049914;28;20216;-67
2023/06/27 12:50:10;;;;;;;11.90;3.60;;;20.30;99.90;;;;;;5049489;28;20166;-67